Itanagar, India
Current Conditions -  °F | °C
As of 10:50 AM on Saturday 20 Dec 2014 (Local Time) from VQPR Reporting Station
Few Clouds Few Clouds  
Wind Chill: 55°   Ceiling: Unl
Heat Index: 55°   Visibility: 6mi
Dew Point: 19°   Wind: 0mph
Humidity: 25%   Direction: NA
Pressure: 30.15"   Gusts: NA
Location:  27.13°N, 93.62°E
Report Text: VQPR 200550Z 00000KT 9999 FEW200 13/M07 Q1021 NOSIG
Loading
Personal Weather Stations






























Interactive Weather Map New forecast layout! Learn more

10-Day Weather Forecast

Advertisements
Track Severe Weather on mobile